International Virtual Aviation Organisation

Russian Federation and Kazakhstan MCD

 

Карточка аэропорта UUWW

Внимание!
Информация на этой странице в стадии наполнения.
Если вы не увидели какой-то информации, или заметили неточность - пожалуйста сообщите нам!
Спасибо!
Команда RU-STAFF
Название аэропортаВнуково
Название аэропорта (англ.)Vnukovo
Превышение686 ft. (209.1 m.)
Координаты55°35.952', 37°16.386'
Высота перехода1200 m
Эшелон переходаBy ATC
Коды ответчика2101-2117
Зона ОрВДМосква РПИ (UUWV)
Данные METARUUWW 180800Z 23007MPS 9999 OVC014 01/M02 Q0999 R24/450537 NOSIG
Проноз погоды (TAF)UUWW 180459Z 1806/1906 22008G14MPS 9999 BKN015 TX01/1812Z TNM05/1903Z TEMPO 1806/1815 -SN SCT006 OVC009 BECMG 1815/1816 6000 OVC008 TEMPO 1816/1903 1500 SHSN SCT005 BKN015CB BECMG 1820/1821 27009G16MPS
NOTAMshow/hide NOTAM
AWOS   TABLE

Информация о ВПП

ВПП Длина ВПП (м.) Покрытие Курс ВПП Частота ILS
013060Бетон13111.7
193060Бетон193111.5
063500Бетон58108.9
243500Бетон238111.1

Диспетчерские позиции

Позывной Наименование органа УВД Частота
UUWW_TWRВнуково-Старт/Посадка118.300
UUWW_R_APPВнуково-Круг126.000
UUWW_GNDВнуково-Руление120.450
UUWW_DELВнуково-Деливери131.800



Спутниковое изображение